createdAt,value
2022-08-12T00:00:32.061Z,99675.91
2022-08-12T00:02:03.811Z,99675.09
2022-08-12T00:02:40.881Z,99676.23
2022-08-12T00:03:32.841Z,99679.70
2022-08-12T00:04:26.670Z,99679.50
2022-08-12T00:05:19.282Z,99677.34
2022-08-12T00:06:11.032Z,99679.02
2022-08-12T00:07:04.115Z,99680.42
2022-08-12T00:08:00.424Z,99677.75
2022-08-12T00:08:54.112Z,99681.21
2022-08-12T00:09:46.420Z,99678.84
2022-08-12T00:10:41.132Z,99680.59
2022-08-12T00:11:33.872Z,99677.53
2022-08-12T00:12:25.634Z,99678.98
2022-08-12T00:13:17.377Z,99678.90
2022-08-12T00:14:09.575Z,99679.31
2022-08-12T00:15:02.926Z,99678.67
2022-08-12T00:15:55.692Z,99679.33
2022-08-12T00:16:48.693Z,99678.02
2022-08-12T00:17:40.867Z,99679.35
2022-08-12T00:18:33.639Z,99681.70
2022-08-12T00:19:25.221Z,99682.39
2022-08-12T00:20:16.971Z,99685.40
2022-08-12T00:21:09.049Z,99686.77
2022-08-12T00:22:01.349Z,99684.02
2022-08-12T00:22:59.044Z,99687.80
2022-08-12T00:23:51.261Z,99680.58
2022-08-12T00:24:43.218Z,99683.92
2022-08-12T00:25:55.816Z,99686.27
2022-08-12T00:26:47.156Z,99685.40
2022-08-12T00:27:43.971Z,99683.02
2022-08-12T00:28:36.544Z,99685.17
2022-08-12T00:29:29.175Z,99685.40
2022-08-12T00:30:21.335Z,99687.80
2022-08-12T00:31:13.563Z,99682.36
2022-08-12T00:32:05.672Z,99686.30
2022-08-12T00:32:58.133Z,99684.98
2022-08-12T00:33:51.541Z,99688.64
2022-08-12T00:34:44.474Z,99686.92
2022-08-12T00:35:38.634Z,99685.48
2022-08-12T00:36:36.208Z,99682.65
2022-08-12T00:37:28.674Z,99684.52
2022-08-12T00:38:21.828Z,99683.04
2022-08-12T00:39:15.166Z,99684.77
2022-08-12T00:40:11.003Z,99683.31
2022-08-12T00:41:03.916Z,99678.52
2022-08-12T00:41:57.201Z,99680.86
2022-08-12T00:42:30.394Z,99682.79
2022-08-12T00:43:07.443Z,99683.39
2022-08-12T00:43:44.130Z,99683.64
2022-08-12T00:44:21.500Z,99678.96
2022-08-12T00:44:56.725Z,99683.23
2022-08-12T00:45:53.359Z,99681.65
2022-08-12T00:46:41.744Z,99681.20
2022-08-12T00:47:25.428Z,99681.13
2022-08-12T00:47:59.027Z,99678.43
2022-08-12T00:48:32.583Z,99677.32
2022-08-12T00:49:07.251Z,99682.25
2022-08-12T00:49:42.267Z,99680.27
2022-08-12T00:50:25.879Z,99680.23
2022-08-12T00:51:02.087Z,99679.49
2022-08-12T00:51:58.485Z,99678.64
2022-08-12T00:52:33.521Z,99677.48
2022-08-12T00:53:09.644Z,99677.19
2022-08-12T00:53:42.848Z,99677.44
2022-08-12T00:54:17.077Z,99676.84
2022-08-12T00:54:57.335Z,99677.57
2022-08-12T00:55:30.939Z,99676.72
2022-08-12T00:56:06.702Z,99676.36
2022-08-12T00:56:41.774Z,99677.98
2022-08-12T00:57:18.836Z,99674.94
2022-08-12T00:57:52.406Z,99680.29
2022-08-12T00:58:31.502Z,99677.28
2022-08-12T00:59:04.756Z,99678.38
2022-08-12T00:59:44.640Z,99677.48
2022-08-12T01:00:24.862Z,99677.16
2022-08-12T01:01:04.481Z,99675.82
2022-08-12T01:02:02.369Z,99673.25
2022-08-12T01:02:42.299Z,99673.34
2022-08-12T01:03:20.676Z,99671.94
2022-08-12T01:04:15.889Z,99670.34
2022-08-12T01:05:12.531Z,99672.90
2022-08-12T01:06:07.383Z,99674.56
2022-08-12T01:07:01.731Z,99673.83
2022-08-12T01:07:56.623Z,99674.99
2022-08-12T01:08:49.665Z,99672.19
2022-08-12T01:09:41.989Z,99675.77
2022-08-12T01:10:34.232Z,99675.89
2022-08-12T01:11:25.982Z,99677.58
2022-08-12T01:12:00.721Z,99677.29
2022-08-12T01:12:35.863Z,99677.04
2022-08-12T01:13:20.202Z,99677.65
2022-08-12T01:13:54.520Z,99674.77
2022-08-12T01:14:29.103Z,99674.69
2022-08-12T01:15:05.020Z,99673.41
2022-08-12T01:15:39.285Z,99674.16
2022-08-12T01:16:15.801Z,99670.17
2022-08-12T01:16:49.245Z,99676.15
2022-08-12T01:17:25.501Z,99674.36
2022-08-12T01:17:59.553Z,99675.65
2022-08-12T01:18:40.063Z,99673.17
2022-08-12T01:19:13.507Z,99670.20
2022-08-12T01:19:50.895Z,99670.45
2022-08-12T01:20:37.431Z,99670.15
2022-08-12T01:21:29.322Z,99671.64
2022-08-12T01:22:29.512Z,99675.73
2022-08-12T01:23:15.615Z,99670.92
2022-08-12T01:24:28.011Z,99670.36
2022-08-12T01:25:03.813Z,99668.04
2022-08-12T01:25:41.599Z,99666.42
2022-08-12T01:26:32.475Z,99668.41
2022-08-12T01:27:09.397Z,99666.11
2022-08-12T01:27:43.473Z,99664.11
2022-08-12T01:28:18.323Z,99666.77
2022-08-12T01:28:59.932Z,99661.84
2022-08-12T01:29:35.380Z,99660.86
2022-08-12T01:30:11.439Z,99661.60
2022-08-12T01:30:45.229Z,99660.77
2022-08-12T01:31:20.231Z,99662.16
2022-08-12T01:31:57.315Z,99664.52
2022-08-12T01:32:37.288Z,99659.85
2022-08-12T01:33:17.862Z,99657.95
2022-08-12T01:34:33.381Z,99657.23
2022-08-12T01:35:06.010Z,99664.30
2022-08-12T01:35:45.215Z,99664.67
2022-08-12T01:36:41.098Z,99658.59
2022-08-12T01:37:20.577Z,99661.98
2022-08-12T01:38:04.655Z,99660.65
2022-08-12T01:38:38.840Z,99664.06
2022-08-12T01:39:15.745Z,99661.86
2022-08-12T01:40:35.055Z,99657.80
2022-08-12T01:40:48.521Z,99654.11
2022-08-12T01:41:24.071Z,99652.89
2022-08-12T01:42:03.472Z,99654.23
2022-08-12T01:42:48.671Z,99651.26
2022-08-12T01:43:22.865Z,99653.30
2022-08-12T01:44:00.813Z,99649.04
2022-08-12T01:44:35.369Z,99650.52
2022-08-12T01:45:10.332Z,99649.90
2022-08-12T01:46:12.841Z,99648.38
2022-08-12T01:47:20.663Z,99652.56
2022-08-12T01:48:13.471Z,99650.53
2022-08-12T01:49:08.308Z,99653.81
2022-08-12T01:50:07.575Z,99651.52
2022-08-12T01:51:10.317Z,99653.73
2022-08-12T01:52:21.871Z,99653.47
2022-08-12T01:52:56.889Z,99650.69
2022-08-12T01:54:06.554Z,99652.67
2022-08-12T01:54:44.704Z,99651.98
2022-08-12T01:55:22.361Z,99652.51
2022-08-12T01:55:56.864Z,99650.02
2022-08-12T01:56:41.967Z,99651.50
2022-08-12T01:57:58.986Z,99652.45
2022-08-12T01:58:53.198Z,99653.73
2022-08-12T01:59:50.298Z,99654.55
2022-08-12T02:00:25.865Z,99656.16
2022-08-12T02:01:12.473Z,99654.67
2022-08-12T02:01:49.581Z,99652.57
2022-08-12T02:02:32.347Z,99652.34
2022-08-12T02:03:55.739Z,99653.16
2022-08-12T02:05:22.785Z,99646.05
2022-08-12T02:06:41.132Z,99644.50
2022-08-12T02:07:49.053Z,99645.17
2022-08-12T02:09:01.260Z,99643.09
2022-08-12T02:10:50.058Z,99645.05
2022-08-12T02:11:49.423Z,99642.98
2022-08-12T02:12:34.891Z,99641.23
2022-08-12T02:13:41.882Z,99638.15
2022-08-12T02:14:46.102Z,99644.04
2022-08-12T02:15:49.951Z,99644.66
2022-08-12T02:16:54.646Z,99646.11
2022-08-12T02:17:56.568Z,99643.17
2022-08-12T02:19:03.638Z,99643.25
2022-08-12T02:20:01.691Z,99644.07
2022-08-12T02:20:52.207Z,99640.38
2022-08-12T02:21:26.952Z,99639.96
2022-08-12T02:22:09.123Z,99642.63
2022-08-12T02:22:45.207Z,99638.18
2022-08-12T02:23:19.573Z,99639.89
2022-08-12T02:23:54.223Z,99636.85
2022-08-12T02:24:31.567Z,99637.54
2022-08-12T02:25:09.681Z,99636.11
2022-08-12T02:25:45.865Z,99637.30
2022-08-12T02:26:20.622Z,99637.13
2022-08-12T02:26:54.731Z,99635.75
2022-08-12T02:27:34.754Z,99636.64
2022-08-12T02:28:08.325Z,99633.59
2022-08-12T02:28:42.122Z,99634.65
2022-08-12T02:29:16.355Z,99633.03
2022-08-12T02:29:50.736Z,99633.48
2022-08-12T02:30:33.167Z,99632.92
2022-08-12T02:31:15.566Z,99634.46
2022-08-12T02:31:50.137Z,99634.47
2022-08-12T02:32:24.647Z,99639.84
2022-08-12T02:33:00.843Z,99639.63
2022-08-12T02:33:35.898Z,99641.38
2022-08-12T02:34:10.091Z,99641.91
2022-08-12T02:34:44.851Z,99640.80
2022-08-12T02:35:21.404Z,99643.14
2022-08-12T02:35:56.022Z,99642.42
2022-08-12T02:36:32.035Z,99643.00
2022-08-12T02:37:09.497Z,99647.04
2022-08-12T02:37:44.372Z,99646.08
2022-08-12T02:38:18.694Z,99647.89
2022-08-12T02:38:54.441Z,99648.34
2022-08-12T02:39:34.066Z,99648.79
2022-08-12T02:40:09.543Z,99647.48
2022-08-12T02:40:52.751Z,99647.16
2022-08-12T02:41:28.258Z,99647.25
2022-08-12T02:42:07.320Z,99651.10
2022-08-12T02:43:23.771Z,99647.14
2022-08-12T02:44:03.038Z,99652.16
2022-08-12T02:44:40.616Z,99647.81
2022-08-12T02:45:19.713Z,99649.98
2022-08-12T02:45:57.743Z,99647.52
2022-08-12T02:46:35.077Z,99650.17
2022-08-12T02:47:58.692Z,99647.97
2022-08-12T02:48:08.241Z,99645.54
2022-08-12T02:48:46.119Z,99648.42
2022-08-12T02:49:31.611Z,99647.30
2022-08-12T02:50:06.329Z,99649.66
2022-08-12T02:50:45.637Z,99653.73
2022-08-12T02:51:24.550Z,99650.55
2022-08-12T02:52:00.468Z,99647.46
2022-08-12T02:52:34.761Z,99645.52
2022-08-12T02:53:09.565Z,99645.23
2022-08-12T02:53:45.441Z,99649.42
2022-08-12T02:54:38.939Z,99648.15
2022-08-12T02:55:28.814Z,99642.80
2022-08-12T02:56:08.278Z,99646.85
2022-08-12T02:56:50.525Z,99647.09
2022-08-12T02:57:25.212Z,99648.05
2022-08-12T02:57:59.777Z,99645.05
2022-08-12T02:58:45.415Z,99646.46
2022-08-12T02:59:23.139Z,99642.52
2022-08-12T02:59:57.045Z,99643.41
2022-08-12T03:00:31.599Z,99640.04
2022-08-12T03:01:09.939Z,99642.33
2022-08-12T03:01:50.009Z,99639.84
2022-08-12T03:02:27.832Z,99639.50
2022-08-12T03:03:06.166Z,99640.60
2022-08-12T03:03:41.466Z,99640.56
2022-08-12T03:04:24.735Z,99642.60
2022-08-12T03:04:59.330Z,99644.58
2022-08-12T03:05:38.499Z,99643.40
2022-08-12T03:06:22.597Z,99647.70
2022-08-12T03:07:02.692Z,99648.87
2022-08-12T03:07:56.487Z,99648.77
2022-08-12T03:08:43.633Z,99649.61
2022-08-12T03:09:24.776Z,99653.08
2022-08-12T03:10:15.858Z,99656.48
2022-08-12T03:10:55.345Z,99655.02
2022-08-12T03:11:42.691Z,99654.42
2022-08-12T03:12:20.110Z,99661.34
2022-08-12T03:12:57.978Z,99662.13
2022-08-12T03:13:36.456Z,99658.71
2022-08-12T03:14:15.329Z,99660.79
2022-08-12T03:14:51.104Z,99660.96
2022-08-12T03:15:24.995Z,99664.26
2022-08-12T03:15:59.170Z,99666.33
2022-08-12T03:16:33.567Z,99665.85
2022-08-12T03:17:30.777Z,99666.91
2022-08-12T03:18:27.022Z,99668.56
2022-08-12T03:19:04.237Z,99668.10
2022-08-12T03:20:10.071Z,99671.87
2022-08-12T03:20:43.566Z,99671.08
2022-08-12T03:21:55.697Z,99665.60
2022-08-12T03:22:14.827Z,99669.80
2022-08-12T03:22:50.076Z,99668.38
2022-08-12T03:23:29.903Z,99670.70
2022-08-12T03:24:05.177Z,99669.04
2022-08-12T03:24:39.681Z,99666.05
2022-08-12T03:25:17.316Z,99664.81
2022-08-12T03:25:52.726Z,99662.90
2022-08-12T03:26:30.401Z,99661.10
2022-08-12T03:27:06.026Z,99662.16
2022-08-12T03:27:49.789Z,99661.19
2022-08-12T03:28:42.538Z,99659.36
2022-08-12T03:29:18.035Z,99660.90
2022-08-12T03:29:54.621Z,99659.56
2022-08-12T03:30:34.282Z,99660.34
2022-08-12T03:31:09.252Z,99658.35
2022-08-12T03:31:44.354Z,99660.71
2022-08-12T03:32:36.300Z,99660.55
2022-08-12T03:33:12.751Z,99661.93
2022-08-12T03:34:01.811Z,99667.05
2022-08-12T03:34:37.581Z,99663.33
2022-08-12T03:35:36.963Z,99665.46
2022-08-12T03:36:09.336Z,99663.41
2022-08-12T03:36:43.157Z,99664.95
2022-08-12T03:37:20.850Z,99663.94
2022-08-12T03:38:01.350Z,99661.00
2022-08-12T03:38:37.691Z,99662.81
2022-08-12T03:39:35.423Z,99665.84
2022-08-12T03:40:30.968Z,99666.98
2022-08-12T03:41:36.443Z,99667.33
2022-08-12T03:42:18.308Z,99671.15
2022-08-12T03:43:11.647Z,99673.20
2022-08-12T03:44:47.023Z,99675.11
2022-08-12T03:45:52.059Z,99674.86
2022-08-12T03:46:52.592Z,99679.70
2022-08-12T03:47:53.388Z,99679.70
2022-08-12T03:48:45.563Z,99682.42
2022-08-12T03:49:38.411Z,99679.73
2022-08-12T03:50:31.169Z,99678.64
2022-08-12T03:51:23.990Z,99677.99
2022-08-12T03:52:18.258Z,99678.64
2022-08-12T03:53:10.481Z,99676.77
2022-08-12T03:54:04.406Z,99678.80
2022-08-12T03:54:56.036Z,99678.29
2022-08-12T03:55:48.001Z,99679.39
2022-08-12T03:56:40.102Z,99679.39
2022-08-12T03:57:31.839Z,99678.05
2022-08-12T03:58:25.188Z,99680.58
2022-08-12T03:59:19.373Z,99684.30
2022-08-12T04:00:10.935Z,99684.89
2022-08-12T04:00:56.926Z,99687.27
2022-08-12T04:01:31.041Z,99686.70
2022-08-12T04:02:04.378Z,99686.98
2022-08-12T04:02:41.469Z,99686.99
2022-08-12T04:03:33.577Z,99684.63
2022-08-12T04:04:09.428Z,99685.52
2022-08-12T04:04:45.744Z,99685.85
2022-08-12T04:05:21.658Z,99688.93
2022-08-12T04:05:56.885Z,99693.91
2022-08-12T04:06:35.625Z,99693.57
2022-08-12T04:07:10.438Z,99693.66
2022-08-12T04:07:51.297Z,99697.00
2022-08-12T04:08:32.356Z,99695.11
2022-08-12T04:09:15.846Z,99696.06
2022-08-12T04:09:50.179Z,99693.17
2022-08-12T04:10:43.530Z,99693.11
2022-08-12T04:11:36.153Z,99694.70
2022-08-12T04:12:39.052Z,99689.79
2022-08-12T04:13:19.937Z,99692.34
2022-08-12T04:13:53.001Z,99693.21
2022-08-12T04:14:28.275Z,99694.95
2022-08-12T04:15:02.306Z,99692.27
2022-08-12T04:15:35.552Z,99697.33
2022-08-12T04:16:13.826Z,99692.48
2022-08-12T04:16:49.526Z,99690.02
2022-08-12T04:17:23.621Z,99695.71
2022-08-12T04:18:06.994Z,99698.42
2022-08-12T04:18:42.658Z,99703.08
2022-08-12T04:19:17.568Z,99703.70
2022-08-12T04:19:52.046Z,99700.47
2022-08-12T04:20:25.379Z,99701.91
2022-08-12T04:20:59.081Z,99705.45
2022-08-12T04:21:33.537Z,99705.39
2022-08-12T04:22:06.742Z,99701.17
2022-08-12T04:22:40.922Z,99700.60
2022-08-12T04:23:17.784Z,99700.21
2022-08-12T04:23:52.211Z,99699.24
2022-08-12T04:24:27.233Z,99694.86
2022-08-12T04:25:02.216Z,99693.93
2022-08-12T04:25:39.797Z,99697.89
2022-08-12T04:26:12.876Z,99694.46
2022-08-12T04:26:46.332Z,99695.17
2022-08-12T04:27:21.488Z,99695.42
2022-08-12T04:27:55.348Z,99695.59
2022-08-12T04:28:29.340Z,99695.55
2022-08-12T04:29:03.873Z,99697.70
2022-08-12T04:30:17.243Z,99696.79
2022-08-12T04:30:33.920Z,99694.73
2022-08-12T04:31:06.976Z,99693.02
2022-08-12T04:31:43.035Z,99689.41
2022-08-12T04:32:16.191Z,99686.30
2022-08-12T04:32:51.968Z,99685.11
2022-08-12T04:33:27.206Z,99686.74
2022-08-12T04:34:00.939Z,99688.14
2022-08-12T04:34:34.168Z,99689.52
2022-08-12T04:35:07.652Z,99690.50
2022-08-12T04:35:41.087Z,99689.45
2022-08-12T04:36:14.136Z,99686.77
2022-08-12T04:36:47.311Z,99684.20
2022-08-12T04:37:21.029Z,99680.11
2022-08-12T04:38:00.429Z,99677.30
2022-08-12T04:38:35.079Z,99675.93
2022-08-12T04:39:11.042Z,99676.48
2022-08-12T04:39:46.234Z,99675.20
2022-08-12T04:40:28.003Z,99675.55
2022-08-12T04:41:03.818Z,99676.11
2022-08-12T04:41:38.892Z,99677.41
2022-08-12T04:42:31.209Z,99675.59
2022-08-12T04:43:05.121Z,99673.44
2022-08-12T04:44:01.503Z,99673.40
2022-08-12T04:44:32.965Z,99670.52
2022-08-12T04:45:07.913Z,99666.16
2022-08-12T04:45:41.167Z,99669.92
2022-08-12T04:46:17.529Z,99664.90
2022-08-12T04:46:54.879Z,99662.83
2022-08-12T04:47:28.612Z,99665.38
2022-08-12T04:48:04.428Z,99664.95
2022-08-12T04:48:37.898Z,99666.73
2022-08-12T04:49:11.096Z,99665.80
2022-08-12T04:49:46.568Z,99667.67
2022-08-12T04:50:35.408Z,99670.61
2022-08-12T04:51:10.643Z,99669.48
2022-08-12T04:51:44.441Z,99673.50
2022-08-12T04:52:34.850Z,99672.52
2022-08-12T04:53:09.320Z,99670.03
2022-08-12T04:53:42.975Z,99674.70
2022-08-12T04:54:17.225Z,99673.05
2022-08-12T04:54:54.355Z,99679.27
2022-08-12T04:55:28.603Z,99679.15
2022-08-12T04:56:01.947Z,99675.90
2022-08-12T04:56:35.839Z,99681.98
2022-08-12T04:57:10.061Z,99679.85
2022-08-12T04:57:43.484Z,99680.91
2022-08-12T04:58:16.651Z,99679.91
2022-08-12T04:59:05.280Z,99686.41
2022-08-12T04:59:48.230Z,99687.95
2022-08-12T05:00:22.695Z,99692.79
2022-08-12T05:00:55.977Z,99698.98
2022-08-12T05:01:31.425Z,99699.97
2022-08-12T05:02:05.123Z,99702.09
2022-08-12T05:02:43.304Z,99707.58
2022-08-12T05:03:17.291Z,99711.14
2022-08-12T05:03:52.176Z,99713.93
2022-08-12T05:04:27.189Z,99715.94
2022-08-12T05:05:03.323Z,99714.34
2022-08-12T05:05:40.477Z,99720.00
2022-08-12T05:06:20.819Z,99719.83
2022-08-12T05:07:00.213Z,99720.29
2022-08-12T05:07:34.381Z,99719.04
2022-08-12T05:08:18.919Z,99720.16
2022-08-12T05:08:57.657Z,99719.72
2022-08-12T05:09:59.047Z,99719.61
2022-08-12T05:10:34.039Z,99722.60
2022-08-12T05:11:11.134Z,99714.43
2022-08-12T05:11:53.787Z,99717.05
2022-08-12T05:12:33.459Z,99715.10
2022-08-12T05:13:16.670Z,99714.13
2022-08-12T05:13:53.523Z,99715.33
2022-08-12T05:14:26.651Z,99712.39
2022-08-12T05:15:00.927Z,99709.47
2022-08-12T05:15:35.966Z,99708.70
2022-08-12T05:16:09.633Z,99708.06
2022-08-12T05:16:42.960Z,99703.80
2022-08-12T05:17:19.033Z,99704.41
2022-08-12T05:17:53.043Z,99704.45
2022-08-12T05:18:29.392Z,99705.46
2022-08-12T05:19:03.260Z,99706.44
2022-08-12T05:19:36.370Z,99710.62
2022-08-12T05:20:15.851Z,99714.70
2022-08-12T05:20:49.149Z,99718.26
2022-08-12T05:21:22.423Z,99721.05
2022-08-12T05:21:55.601Z,99724.30
2022-08-12T05:22:29.095Z,99728.95
2022-08-12T05:23:13.360Z,99727.28
2022-08-12T05:23:46.796Z,99729.45
2022-08-12T05:24:19.865Z,99724.98
2022-08-12T05:24:53.266Z,99724.60
2022-08-12T05:25:26.730Z,99728.34
2022-08-12T05:26:01.352Z,99725.34
2022-08-12T05:26:34.540Z,99726.20
2022-08-12T05:27:07.828Z,99733.88
2022-08-12T05:27:40.980Z,99735.67
2022-08-12T05:28:31.387Z,99743.85
2022-08-12T05:29:10.450Z,99743.64
2022-08-12T05:30:07.906Z,99747.23
2022-08-12T05:30:43.903Z,99748.50
2022-08-12T05:31:47.540Z,99743.58
2022-08-12T05:32:11.687Z,99739.14
2022-08-12T05:32:44.781Z,99735.13
2022-08-12T05:33:17.861Z,99732.97
2022-08-12T05:33:51.167Z,99727.80
2022-08-12T05:34:26.799Z,99728.45
2022-08-12T05:35:07.130Z,99726.96
2022-08-12T05:35:43.334Z,99728.08
2022-08-12T05:36:17.737Z,99730.36
2022-08-12T05:36:50.953Z,99733.81
2022-08-12T05:37:24.156Z,99729.98
2022-08-12T05:38:16.115Z,99729.04
2022-08-12T05:38:58.223Z,99723.27
2022-08-12T05:39:32.856Z,99726.86
2022-08-12T05:40:10.842Z,99727.14
2022-08-12T05:40:44.291Z,99734.42
2022-08-12T05:41:20.894Z,99738.12
2022-08-12T05:41:55.041Z,99737.75
2022-08-12T05:42:32.495Z,99737.47
2022-08-12T05:43:08.412Z,99741.33
2022-08-12T05:43:41.667Z,99740.60
2022-08-12T05:44:16.656Z,99739.75
2022-08-12T05:44:50.034Z,99740.04
2022-08-12T05:45:23.225Z,99737.75
2022-08-12T05:45:56.514Z,99738.08
2022-08-12T05:46:32.096Z,99737.15
2022-08-12T05:47:05.384Z,99733.08
2022-08-12T05:47:53.428Z,99729.58
2022-08-12T05:48:27.927Z,99729.83
2022-08-12T05:49:01.568Z,99728.93
2022-08-12T05:49:35.203Z,99730.56
2022-08-12T05:50:08.743Z,99731.80
2022-08-12T05:50:43.059Z,99731.12
2022-08-12T05:51:16.607Z,99733.55
2022-08-12T05:51:49.952Z,99724.24
2022-08-12T05:52:23.232Z,99720.87
2022-08-12T05:52:56.499Z,99718.70
2022-08-12T05:53:29.688Z,99719.92
2022-08-12T05:54:03.341Z,99720.73
2022-08-12T05:54:57.001Z,99721.62
2022-08-12T05:55:31.982Z,99722.48
2022-08-12T05:56:05.420Z,99717.46
2022-08-12T05:56:40.998Z,99718.94
2022-08-12T05:57:14.085Z,99716.13
2022-08-12T05:57:58.980Z,99710.30
2022-08-12T05:58:32.996Z,99708.33
2022-08-12T05:59:08.018Z,99705.73
2022-08-12T05:59:42.038Z,99704.48
2022-08-12T06:00:17.567Z,99702.08
2022-08-12T06:00:50.732Z,99702.33
2022-08-12T06:02:08.880Z,99700.31
2022-08-12T06:02:19.120Z,99701.13
2022-08-12T06:03:01.439Z,99704.86
2022-08-12T06:03:34.932Z,99705.41
2022-08-12T06:04:09.641Z,99705.85
2022-08-12T06:04:42.962Z,99703.95
2022-08-12T06:05:16.199Z,99706.24
2022-08-12T06:05:55.143Z,99708.23
2022-08-12T06:06:29.797Z,99709.61
2022-08-12T06:07:59.710Z,99706.92
2022-08-12T06:08:02.359Z,99705.46
2022-08-12T06:08:36.148Z,99705.30
2022-08-12T06:09:11.703Z,99703.52
2022-08-12T06:09:45.571Z,99703.74
2022-08-12T06:10:32.578Z,99697.15
2022-08-12T06:11:06.256Z,99695.45
2022-08-12T06:12:05.186Z,99693.27
2022-08-12T06:12:35.827Z,99684.56
2022-08-12T06:13:09.617Z,99683.70
2022-08-12T06:13:54.216Z,99682.00
2022-08-12T06:14:28.303Z,99682.00
2022-08-12T06:15:05.031Z,99683.48
2022-08-12T06:15:38.244Z,99687.70
2022-08-12T06:16:15.357Z,99693.73
2022-08-12T06:16:49.030Z,99691.33
2022-08-12T06:17:23.468Z,99696.64
2022-08-12T06:18:11.619Z,99694.52
2022-08-12T06:18:50.612Z,99689.87
2022-08-12T06:19:25.392Z,99691.43
2022-08-12T06:20:26.045Z,99688.60
2022-08-12T06:21:03.092Z,99682.98
2022-08-12T06:21:37.914Z,99686.41
2022-08-12T06:22:12.828Z,99683.64
2022-08-12T06:22:51.156Z,99689.98
2022-08-12T06:23:30.158Z,99686.61
2022-08-12T06:24:04.581Z,99692.02
2022-08-12T06:24:38.609Z,99688.92
2022-08-12T06:25:21.993Z,99691.02
2022-08-12T06:25:56.587Z,99696.32
2022-08-12T06:26:30.030Z,99697.27
2022-08-12T06:27:03.641Z,99694.52
2022-08-12T06:28:05.768Z,99697.19
2022-08-12T06:28:39.860Z,99694.41
2022-08-12T06:30:07.998Z,99695.36
2022-08-12T06:30:27.633Z,99692.02
2022-08-12T06:31:25.262Z,99694.80
2022-08-12T06:31:59.931Z,99693.55
2022-08-12T06:32:34.570Z,99695.58
2022-08-12T06:33:22.602Z,99695.58
2022-08-12T06:34:52.944Z,99699.27
2022-08-12T06:35:25.702Z,99697.97
2022-08-12T06:35:48.909Z,99700.80
2022-08-12T06:36:23.903Z,99698.98
2022-08-12T06:37:03.434Z,99697.06
2022-08-12T06:37:41.962Z,99694.94
2022-08-12T06:38:23.198Z,99695.31
2022-08-12T06:38:56.393Z,99696.81
2022-08-12T06:39:29.573Z,99695.36
2022-08-12T06:40:04.007Z,99694.37
2022-08-12T06:40:56.271Z,99695.14
2022-08-12T06:42:25.272Z,99695.23
2022-08-12T06:42:56.384Z,99697.88
2022-08-12T06:43:30.023Z,99700.45
2022-08-12T06:44:23.694Z,99703.35
2022-08-12T06:44:57.062Z,99703.06
2022-08-12T06:45:45.383Z,99702.18
2022-08-12T06:46:22.397Z,99699.86
2022-08-12T06:46:56.769Z,99697.85
2022-08-12T06:47:37.061Z,99701.09
2022-08-12T06:48:11.716Z,99698.35
2022-08-12T06:48:45.139Z,99698.82
2022-08-12T06:49:18.475Z,99697.23
2022-08-12T06:49:52.765Z,99694.86
2022-08-12T06:50:27.743Z,99693.02
2022-08-12T06:51:05.233Z,99689.83
2022-08-12T06:51:38.399Z,99691.30
2022-08-12T06:52:11.892Z,99691.46
2022-08-12T06:52:48.759Z,99687.70
2022-08-12T06:53:23.887Z,99692.74
2022-08-12T06:53:58.999Z,99692.70
2022-08-12T06:54:33.549Z,99695.48
2022-08-12T06:55:07.699Z,99696.61
2022-08-12T06:55:57.549Z,99695.74
2022-08-12T06:57:03.619Z,99695.33
2022-08-12T06:58:05.578Z,99698.58
2022-08-12T06:58:22.117Z,99698.05
2022-08-12T06:58:56.131Z,99696.73
2022-08-12T06:59:29.200Z,99696.96
2022-08-12T07:00:02.360Z,99698.05
2022-08-12T07:00:35.642Z,99699.19
2022-08-12T07:01:08.879Z,99700.21
2022-08-12T07:01:51.176Z,99698.80
2022-08-12T07:02:26.170Z,99698.14
2022-08-12T07:03:00.384Z,99700.45
2022-08-12T07:03:53.828Z,99701.70
2022-08-12T07:04:42.713Z,99705.53
2022-08-12T07:05:17.189Z,99704.87
2022-08-12T07:05:51.028Z,99706.82
2022-08-12T07:06:25.672Z,99706.17
2022-08-12T07:06:58.807Z,99707.75
2022-08-12T07:07:32.121Z,99706.42
2022-08-12T07:08:10.398Z,99707.48
2022-08-12T07:08:44.545Z,99706.98
2022-08-12T07:10:05.470Z,99701.92
2022-08-12T07:10:12.896Z,99702.20
2022-08-12T07:10:53.744Z,99702.02
2022-08-12T07:11:32.405Z,99699.89
2022-08-12T07:12:06.013Z,99701.14
2022-08-12T07:12:39.277Z,99703.30
2022-08-12T07:13:12.801Z,99705.43
2022-08-12T07:14:02.515Z,99703.60
2022-08-12T07:14:48.807Z,99705.44
2022-08-12T07:15:24.863Z,99701.68
2022-08-12T07:15:59.154Z,99700.83
2022-08-12T07:16:52.082Z,99700.54
2022-08-12T07:17:26.566Z,99704.40
2022-08-12T07:18:20.820Z,99702.66
2022-08-12T07:18:56.530Z,99706.67
2022-08-12T07:19:44.985Z,99706.75
2022-08-12T07:20:42.602Z,99709.74
2022-08-12T07:21:12.767Z,99705.34
2022-08-12T07:22:00.388Z,99706.41
2022-08-12T07:22:36.020Z,99709.21
2022-08-12T07:23:09.883Z,99707.82
2022-08-12T07:23:47.100Z,99712.43
2022-08-12T07:24:20.237Z,99710.63
2022-08-12T07:25:13.255Z,99711.52
2022-08-12T07:25:46.562Z,99712.23
2022-08-12T07:26:22.219Z,99716.40
2022-08-12T07:26:59.455Z,99717.20
2022-08-12T07:27:40.956Z,99715.19
2022-08-12T07:28:20.170Z,99715.27
2022-08-12T07:28:53.475Z,99716.45
2022-08-12T07:29:59.401Z,99716.01
2022-08-12T07:30:19.601Z,99718.52
2022-08-12T07:30:54.900Z,99718.86
2022-08-12T07:31:28.207Z,99722.92
2022-08-12T07:32:02.617Z,99726.13
2022-08-12T07:32:36.087Z,99722.46
2022-08-12T07:33:11.047Z,99727.66
2022-08-12T07:33:44.565Z,99730.83
2022-08-12T07:34:17.963Z,99734.89
2022-08-12T07:34:51.352Z,99734.92
2022-08-12T07:35:24.932Z,99736.27
2022-08-12T07:36:02.666Z,99740.91
2022-08-12T07:36:36.079Z,99742.98
2022-08-12T07:37:10.005Z,99743.22
2022-08-12T07:37:47.880Z,99740.94
2022-08-12T07:38:29.632Z,99740.62
2022-08-12T07:39:04.441Z,99744.87
2022-08-12T07:39:50.737Z,99744.80
2022-08-12T07:40:33.431Z,99743.33
2022-08-12T07:41:08.274Z,99741.64
2022-08-12T07:41:48.910Z,99738.38
2022-08-12T07:42:22.126Z,99741.33
2022-08-12T07:42:55.563Z,99741.48
2022-08-12T07:43:31.228Z,99739.52
2022-08-12T07:44:09.201Z,99742.51
2022-08-12T07:44:44.148Z,99740.61
2022-08-12T07:45:18.028Z,99734.76
2022-08-12T07:45:54.401Z,99732.19
2022-08-12T07:46:36.944Z,99735.58
2022-08-12T07:47:12.750Z,99729.77
2022-08-12T07:47:47.843Z,99731.23
2022-08-12T07:48:22.697Z,99729.11
2022-08-12T07:48:58.227Z,99728.59
2022-08-12T07:49:31.713Z,99729.13
2022-08-12T07:50:25.169Z,99726.46
2022-08-12T07:50:58.834Z,99729.85
2022-08-12T07:51:33.190Z,99725.61
2022-08-12T07:52:06.444Z,99729.13
2022-08-12T07:52:43.299Z,99732.52
2022-08-12T07:53:17.519Z,99727.66
2022-08-12T07:54:01.154Z,99728.79
2022-08-12T07:54:37.672Z,99728.56
2022-08-12T07:55:12.569Z,99728.81
2022-08-12T07:55:46.326Z,99730.81
2022-08-12T07:56:20.226Z,99731.17
2022-08-12T07:56:53.552Z,99733.34
2022-08-12T07:57:26.735Z,99734.85
2022-08-12T07:58:00.940Z,99735.91
2022-08-12T07:58:34.183Z,99737.72
2022-08-12T07:59:10.961Z,99738.44
2022-08-12T07:59:44.127Z,99738.52
2022-08-12T08:00:18.748Z,99741.02
2022-08-12T08:00:58.045Z,99741.11
2022-08-12T08:01:33.171Z,99743.88
2022-08-12T08:02:09.188Z,99745.02
2022-08-12T08:02:42.796Z,99749.23
2022-08-12T08:03:17.386Z,99750.46
2022-08-12T08:04:16.472Z,99752.34
2022-08-12T08:04:57.710Z,99747.76
2022-08-12T08:05:53.695Z,99743.64